createdAt,value
2023-03-11T00:00:19.059Z,79.97
2023-03-11T00:02:48.388Z,79.85
2023-03-11T00:05:39.653Z,78.68
2023-03-11T00:08:09.279Z,79.37
2023-03-11T00:10:41.813Z,80.11
2023-03-11T00:13:30.019Z,80.44
2023-03-11T00:15:57.705Z,80.41
2023-03-11T00:18:27.295Z,80.24
2023-03-11T00:20:55.662Z,80.35
2023-03-11T00:23:22.670Z,80.86
2023-03-11T00:25:49.358Z,81.70
2023-03-11T00:28:17.030Z,81.12
2023-03-11T00:30:45.974Z,81.26
2023-03-11T00:33:15.263Z,80.83
2023-03-11T00:35:42.993Z,81.24
2023-03-11T00:38:15.067Z,80.77
2023-03-11T00:40:43.325Z,80.19
2023-03-11T00:43:10.270Z,79.90
2023-03-11T00:45:37.237Z,79.82
2023-03-11T00:48:04.615Z,79.81
2023-03-11T00:50:33.438Z,79.93
2023-03-11T00:53:01.278Z,78.88
2023-03-11T00:55:31.345Z,78.90
2023-03-11T00:58:00.544Z,78.32
2023-03-11T01:00:29.396Z,78.57
2023-03-11T01:02:57.377Z,79.13
2023-03-11T01:05:27.610Z,78.21
2023-03-11T01:07:54.198Z,78.41
2023-03-11T01:10:20.853Z,77.97
2023-03-11T01:12:48.245Z,79.41
2023-03-11T01:15:22.166Z,78.77
2023-03-11T01:17:48.786Z,80.36
2023-03-11T01:20:15.990Z,78.61
2023-03-11T01:22:43.107Z,78.12
2023-03-11T01:25:13.934Z,77.31
2023-03-11T01:27:40.959Z,76.23
2023-03-11T01:30:08.409Z,77.96
2023-03-11T01:32:35.240Z,78.34
2023-03-11T01:35:01.864Z,78.74
2023-03-11T01:37:28.534Z,78.56
2023-03-11T01:39:55.153Z,77.63
2023-03-11T01:42:21.873Z,77.30
2023-03-11T01:44:48.530Z,76.72
2023-03-11T01:47:31.833Z,75.70
2023-03-11T01:49:58.782Z,75.16
2023-03-11T01:52:25.528Z,74.64
2023-03-11T01:54:52.200Z,75.54
2023-03-11T01:57:18.820Z,75.57
2023-03-11T01:59:51.969Z,76.34
2023-03-11T02:02:31.706Z,76.09
2023-03-11T02:05:02.092Z,76.66
2023-03-11T02:07:28.873Z,76.80
2023-03-11T02:09:55.507Z,76.79
2023-03-11T02:12:22.804Z,78.46
2023-03-11T02:14:52.756Z,78.83
2023-03-11T02:17:19.694Z,79.02
2023-03-11T02:20:28.019Z,79.95
2023-03-11T02:22:56.888Z,79.93
2023-03-11T02:25:42.532Z,80.07
2023-03-11T02:28:14.027Z,79.79
2023-03-11T02:30:43.857Z,79.43
2023-03-11T02:33:12.436Z,80.16
2023-03-11T02:35:39.093Z,78.46
2023-03-11T02:38:05.727Z,79.19
2023-03-11T02:40:48.007Z,78.59
2023-03-11T02:43:18.014Z,78.34
2023-03-11T02:45:47.592Z,77.90
2023-03-11T02:48:15.712Z,79.38
2023-03-11T02:50:46.092Z,78.94
2023-03-11T02:53:13.323Z,79.83
2023-03-11T02:55:40.027Z,78.51
2023-03-11T02:58:06.673Z,77.64
2023-03-11T03:00:33.316Z,77.17
2023-03-11T03:03:00.391Z,75.72
2023-03-11T03:05:27.392Z,74.73
2023-03-11T03:07:54.213Z,76.23
2023-03-11T03:10:22.675Z,76.89
2023-03-11T03:12:49.347Z,78.60
2023-03-11T03:15:16.350Z,77.80
2023-03-11T03:17:43.248Z,76.96
2023-03-11T03:20:10.574Z,76.75
2023-03-11T03:22:38.210Z,76.15
2023-03-11T03:25:05.948Z,75.46
2023-03-11T03:27:34.770Z,76.82
2023-03-11T03:30:01.436Z,76.85
2023-03-11T03:32:28.449Z,75.49
2023-03-11T03:34:55.102Z,75.39
2023-03-11T03:37:21.708Z,73.69
2023-03-11T03:39:48.341Z,72.19
2023-03-11T03:42:14.989Z,72.09
2023-03-11T03:44:41.609Z,72.30
2023-03-11T03:47:08.271Z,74.66
2023-03-11T03:49:34.885Z,73.56
2023-03-11T03:52:01.493Z,73.29
2023-03-11T03:54:28.122Z,73.36
2023-03-11T03:56:54.753Z,73.42
2023-03-11T03:59:21.597Z,73.15
2023-03-11T04:01:48.200Z,72.59
2023-03-11T04:04:14.896Z,72.40
2023-03-11T04:06:43.040Z,71.33
2023-03-11T04:09:11.891Z,71.39
2023-03-11T04:11:39.015Z,71.29
2023-03-11T04:14:06.072Z,71.15
2023-03-11T04:16:33.582Z,70.08
2023-03-11T04:19:00.217Z,69.86
2023-03-11T04:21:26.850Z,71.11
2023-03-11T04:23:53.533Z,73.44
2023-03-11T04:26:20.135Z,74.06
2023-03-11T04:28:46.783Z,73.29
2023-03-11T04:31:13.493Z,72.93
2023-03-11T04:33:40.123Z,74.60
2023-03-11T04:36:09.141Z,73.30
2023-03-11T04:38:36.268Z,71.69
2023-03-11T04:41:05.767Z,71.85
2023-03-11T04:43:33.560Z,71.81
2023-03-11T04:46:00.441Z,73.85
2023-03-11T04:48:27.137Z,75.10
2023-03-11T04:50:53.956Z,74.67
2023-03-11T04:53:20.562Z,73.77
2023-03-11T04:55:47.236Z,73.59
2023-03-11T04:58:14.193Z,73.92
2023-03-11T05:00:40.873Z,73.51
2023-03-11T05:03:07.524Z,74.18
2023-03-11T05:05:34.341Z,75.17
2023-03-11T05:08:00.957Z,75.37
2023-03-11T05:10:27.873Z,73.80
2023-03-11T05:12:55.211Z,73.30
2023-03-11T05:15:21.880Z,75.10
2023-03-11T05:17:48.501Z,74.55
2023-03-11T05:20:15.971Z,73.59
2023-03-11T05:22:43.186Z,75.80
2023-03-11T05:25:10.009Z,75.96
2023-03-11T05:27:36.701Z,76.10
2023-03-11T05:30:04.320Z,74.62
2023-03-11T05:32:31.201Z,73.55
2023-03-11T05:34:57.857Z,73.53
2023-03-11T05:37:24.586Z,72.82
2023-03-11T05:39:52.906Z,73.20
2023-03-11T05:42:21.375Z,74.18
2023-03-11T05:44:48.619Z,74.06
2023-03-11T05:47:17.173Z,72.54
2023-03-11T05:49:43.820Z,73.61
2023-03-11T05:52:10.436Z,72.82
2023-03-11T05:54:37.065Z,72.75
2023-03-11T05:57:03.843Z,72.05
2023-03-11T05:59:30.492Z,71.85
2023-03-11T06:01:57.180Z,70.77
2023-03-11T06:04:24.591Z,70.20
2023-03-11T06:06:51.301Z,71.77
2023-03-11T06:09:17.922Z,71.81
2023-03-11T06:11:44.596Z,73.13
2023-03-11T06:14:13.700Z,72.60
2023-03-11T06:16:40.883Z,71.52
2023-03-11T06:19:07.820Z,71.03
2023-03-11T06:21:34.468Z,74.17
2023-03-11T06:24:01.252Z,74.39
2023-03-11T06:26:28.344Z,72.70
2023-03-11T06:28:54.988Z,70.27
2023-03-11T06:31:28.384Z,69.31
2023-03-11T06:33:55.820Z,68.85
2023-03-11T06:36:23.089Z,68.53
2023-03-11T06:38:53.075Z,68.62
2023-03-11T06:41:20.081Z,67.83
2023-03-11T06:43:49.651Z,68.07
2023-03-11T06:46:20.414Z,68.60
2023-03-11T06:48:47.510Z,68.06
2023-03-11T06:51:14.550Z,67.64
2023-03-11T06:53:41.169Z,69.76
2023-03-11T06:56:09.656Z,70.37
2023-03-11T06:58:38.253Z,70.15
2023-03-11T07:01:11.413Z,69.30
2023-03-11T07:03:39.127Z,69.01
2023-03-11T07:06:06.844Z,69.44
2023-03-11T07:08:33.611Z,70.53
2023-03-11T07:11:14.750Z,71.96
2023-03-11T07:13:41.847Z,72.22
2023-03-11T07:16:12.646Z,70.53
2023-03-11T07:18:39.401Z,69.79
2023-03-11T07:21:07.857Z,69.19
2023-03-11T07:23:35.795Z,70.76
2023-03-11T07:26:02.497Z,70.38
2023-03-11T07:28:29.545Z,70.58
2023-03-11T07:30:56.932Z,70.28
2023-03-11T07:33:24.170Z,70.03
2023-03-11T07:35:51.623Z,71.29
2023-03-11T07:38:18.343Z,71.13
2023-03-11T07:40:45.280Z,71.47
2023-03-11T07:43:12.060Z,72.86
2023-03-11T07:45:38.862Z,72.54
2023-03-11T07:48:06.535Z,73.21
2023-03-11T07:50:33.232Z,74.11
2023-03-11T07:53:00.023Z,78.67
2023-03-11T07:55:26.708Z,77.47
2023-03-11T07:57:53.421Z,77.32
2023-03-11T08:00:20.342Z,77.89
2023-03-11T08:02:47.061Z,78.40
2023-03-11T08:05:13.859Z,78.32
2023-03-11T08:07:40.494Z,76.38
2023-03-11T08:10:10.649Z,74.84
2023-03-11T08:12:37.257Z,72.94
2023-03-11T08:15:04.248Z,72.77
2023-03-11T08:17:30.863Z,73.32
2023-03-11T08:19:57.605Z,74.83
2023-03-11T08:22:24.417Z,74.39
2023-03-11T08:24:52.435Z,77.08
2023-03-11T08:27:19.102Z,78.63
2023-03-11T08:29:45.718Z,78.81
2023-03-11T08:32:12.429Z,79.71
2023-03-11T08:34:39.125Z,76.18
2023-03-11T08:37:05.768Z,74.90
2023-03-11T08:39:32.405Z,71.99
2023-03-11T08:41:59.020Z,70.82
2023-03-11T08:44:25.605Z,71.69
2023-03-11T08:46:52.250Z,70.93
2023-03-11T08:49:18.872Z,71.47
2023-03-11T08:51:45.589Z,72.25
2023-03-11T08:54:12.233Z,71.34
2023-03-11T08:56:38.942Z,72.61
2023-03-11T08:59:05.555Z,71.86
2023-03-11T09:01:32.190Z,74.59
2023-03-11T09:03:58.810Z,75.32
2023-03-11T09:06:25.525Z,73.67
2023-03-11T09:08:52.175Z,72.91
2023-03-11T09:11:19.487Z,71.99
2023-03-11T09:13:46.141Z,70.63
2023-03-11T09:16:16.382Z,69.67
2023-03-11T09:18:43.240Z,70.91
2023-03-11T09:21:10.149Z,71.43
2023-03-11T09:23:37.003Z,74.24
2023-03-11T09:26:03.870Z,72.18
2023-03-11T09:28:30.633Z,69.90
2023-03-11T09:30:57.866Z,67.89
2023-03-11T09:33:24.879Z,68.10
2023-03-11T09:35:51.678Z,68.64
2023-03-11T09:38:18.320Z,71.19
2023-03-11T09:41:23.297Z,69.50
2023-03-11T09:44:04.268Z,71.77
2023-03-11T09:47:04.398Z,73.70
2023-03-11T09:50:02.885Z,72.10
2023-03-11T09:52:58.717Z,71.08
2023-03-11T09:55:48.377Z,69.90
2023-03-11T09:58:17.823Z,68.40
2023-03-11T10:00:45.721Z,69.32
2023-03-11T10:03:37.385Z,68.29
2023-03-11T10:06:16.432Z,66.54
2023-03-11T10:08:48.676Z,69.84
2023-03-11T10:11:18.182Z,70.34
2023-03-11T10:13:53.817Z,70.41
2023-03-11T10:16:35.762Z,73.12
2023-03-11T10:19:18.613Z,71.31
2023-03-11T10:21:45.189Z,69.42
2023-03-11T10:24:37.968Z,70.19
2023-03-11T10:27:45.702Z,70.50
2023-03-11T10:30:33.770Z,70.81
2023-03-11T10:33:13.889Z,69.64
2023-03-11T10:35:44.125Z,74.32
2023-03-11T10:38:18.271Z,73.14
2023-03-11T10:40:47.988Z,69.59
2023-03-11T10:43:24.829Z,67.34
2023-03-11T10:45:54.003Z,67.13
2023-03-11T10:48:22.457Z,64.20
2023-03-11T10:51:02.724Z,71.00
2023-03-11T10:53:30.594Z,69.71
2023-03-11T10:55:59.722Z,69.70
2023-03-11T10:58:32.342Z,69.12
2023-03-11T11:01:17.101Z,67.36
2023-03-11T11:03:50.268Z,67.58
2023-03-11T11:06:35.747Z,67.83
2023-03-11T11:09:18.104Z,66.92
2023-03-11T11:11:59.955Z,66.67
2023-03-11T11:14:26.729Z,66.61
2023-03-11T11:16:55.312Z,68.88
2023-03-11T11:19:22.257Z,69.45
2023-03-11T11:21:50.421Z,68.24
2023-03-11T11:24:25.388Z,68.92
2023-03-11T11:27:11.367Z,68.84
2023-03-11T11:29:38.183Z,68.03
2023-03-11T11:32:17.061Z,67.55
2023-03-11T11:34:57.053Z,67.60
2023-03-11T11:37:25.604Z,66.24
2023-03-11T11:39:59.112Z,65.16
2023-03-11T11:42:31.041Z,64.67
2023-03-11T11:45:05.609Z,65.02
2023-03-11T11:47:39.864Z,66.39
2023-03-11T11:50:18.299Z,66.50
2023-03-11T11:52:55.820Z,66.24
2023-03-11T11:55:29.685Z,66.32
2023-03-11T11:57:57.602Z,67.04
2023-03-11T12:00:48.153Z,67.83
2023-03-11T12:03:53.599Z,67.30
2023-03-11T12:06:46.345Z,68.17
2023-03-11T12:09:28.240Z,67.17
2023-03-11T12:12:08.405Z,65.81
2023-03-11T12:14:55.295Z,65.21
2023-03-11T12:17:25.928Z,66.41
2023-03-11T12:20:07.769Z,66.32
2023-03-11T12:23:01.677Z,66.57
2023-03-11T12:25:37.308Z,67.22
2023-03-11T12:28:37.086Z,68.48
2023-03-11T12:31:09.215Z,65.75
2023-03-11T12:33:41.079Z,66.54
2023-03-11T12:36:41.075Z,66.52
2023-03-11T12:39:22.488Z,65.26
2023-03-11T12:42:09.513Z,64.50
2023-03-11T12:44:36.851Z,65.79
2023-03-11T12:47:12.409Z,67.79
2023-03-11T12:49:45.502Z,65.65
2023-03-11T12:52:12.380Z,65.56
2023-03-11T12:54:40.181Z,66.36
2023-03-11T12:57:44.227Z,64.71
2023-03-11T13:00:41.940Z,66.49
2023-03-11T13:03:32.788Z,66.85
2023-03-11T13:06:13.161Z,69.59
2023-03-11T13:08:53.597Z,68.68
2023-03-11T13:11:49.324Z,68.80
2023-03-11T13:14:26.379Z,67.49
2023-03-11T13:16:53.981Z,68.87
2023-03-11T13:19:53.768Z,68.79
2023-03-11T13:22:39.233Z,70.00
2023-03-11T13:25:40.180Z,68.84
2023-03-11T13:28:25.108Z,68.35
2023-03-11T13:31:13.707Z,67.33
2023-03-11T13:33:54.418Z,67.73
2023-03-11T13:36:30.052Z,68.49
2023-03-11T13:39:14.837Z,68.69
2023-03-11T13:41:43.989Z,68.88
2023-03-11T13:44:19.718Z,70.33
2023-03-11T13:46:56.812Z,68.71
2023-03-11T13:49:28.089Z,68.46
2023-03-11T13:51:57.457Z,71.09
2023-03-11T13:54:59.573Z,71.86
2023-03-11T13:57:31.600Z,73.32
2023-03-11T14:00:15.737Z,72.19
2023-03-11T14:02:49.716Z,73.84
2023-03-11T14:05:22.889Z,72.78
2023-03-11T14:07:49.890Z,72.77
2023-03-11T14:10:17.921Z,70.76
2023-03-11T14:12:46.256Z,71.12
2023-03-11T14:15:24.465Z,70.19
2023-03-11T14:17:53.605Z,68.83
2023-03-11T14:20:23.471Z,69.86
2023-03-11T14:22:53.271Z,71.34
2023-03-11T14:25:25.654Z,72.87
2023-03-11T14:28:19.609Z,72.27
2023-03-11T14:30:57.748Z,71.68
2023-03-11T14:33:25.357Z,73.97
2023-03-11T14:35:55.503Z,72.88
2023-03-11T14:38:28.598Z,70.46
2023-03-11T14:41:02.617Z,69.94
2023-03-11T14:43:37.528Z,69.57
2023-03-11T14:46:07.634Z,70.01
2023-03-11T14:48:39.364Z,72.02
2023-03-11T14:51:17.981Z,71.19
2023-03-11T14:54:05.990Z,71.53
2023-03-11T14:56:39.675Z,72.56
2023-03-11T14:59:22.553Z,71.22
2023-03-11T15:01:51.299Z,69.65
2023-03-11T15:04:33.202Z,69.41
2023-03-11T15:07:03.713Z,68.99
2023-03-11T15:09:32.166Z,72.14
2023-03-11T15:12:01.962Z,70.98
2023-03-11T15:14:34.631Z,69.39
2023-03-11T15:17:35.359Z,68.26
2023-03-11T15:20:29.010Z,67.98
2023-03-11T15:22:58.713Z,66.97
2023-03-11T15:25:25.512Z,67.06
2023-03-11T15:27:52.509Z,68.10
2023-03-11T15:30:31.088Z,68.06
2023-03-11T15:32:59.022Z,68.43
2023-03-11T15:35:30.843Z,68.75
2023-03-11T15:38:23.770Z,68.39
2023-03-11T15:41:02.369Z,68.24
2023-03-11T15:43:33.668Z,67.50
2023-03-11T15:46:02.973Z,67.62
2023-03-11T15:48:29.986Z,70.37
2023-03-11T15:50:59.382Z,71.79
2023-03-11T15:53:28.413Z,71.60
2023-03-11T15:56:07.515Z,70.63
2023-03-11T15:58:36.953Z,69.44
2023-03-11T16:01:03.727Z,68.55
2023-03-11T16:03:31.569Z,69.15
2023-03-11T16:05:58.368Z,72.63
2023-03-11T16:08:25.086Z,70.70
2023-03-11T16:10:51.897Z,71.55
2023-03-11T16:13:18.909Z,70.31
2023-03-11T16:15:45.917Z,69.92
2023-03-11T16:18:13.145Z,71.57
2023-03-11T16:20:51.967Z,70.08
2023-03-11T16:23:21.501Z,68.93
2023-03-11T16:25:49.342Z,68.25
2023-03-11T16:28:17.264Z,68.42
2023-03-11T16:30:44.912Z,67.96
2023-03-11T16:33:11.546Z,67.71
2023-03-11T16:35:38.646Z,68.26
2023-03-11T16:38:07.252Z,67.64
2023-03-11T16:40:33.973Z,67.81
2023-03-11T16:43:04.416Z,71.54
2023-03-11T16:45:31.509Z,70.48
2023-03-11T16:47:58.178Z,69.25
2023-03-11T16:50:25.262Z,68.35
2023-03-11T16:52:55.746Z,67.30
2023-03-11T16:55:24.740Z,71.59
2023-03-11T16:57:51.409Z,68.80
2023-03-11T17:00:18.618Z,68.05
2023-03-11T17:02:45.306Z,70.28
2023-03-11T17:05:12.712Z,68.69
2023-03-11T17:07:40.390Z,67.77
2023-03-11T17:10:09.401Z,67.55
2023-03-11T17:12:37.740Z,66.80
2023-03-11T17:15:06.538Z,69.88
2023-03-11T17:17:33.257Z,68.85
2023-03-11T17:19:59.921Z,68.06
2023-03-11T17:22:26.605Z,67.86
2023-03-11T17:24:53.343Z,67.77
2023-03-11T17:27:19.958Z,67.78
2023-03-11T17:29:46.628Z,66.10
2023-03-11T17:32:15.762Z,65.66
2023-03-11T17:34:43.717Z,65.79
2023-03-11T17:37:10.377Z,68.51
2023-03-11T17:39:36.992Z,71.61
2023-03-11T17:42:03.873Z,69.85
2023-03-11T17:44:44.641Z,72.66
2023-03-11T17:47:17.065Z,70.87
2023-03-11T17:49:43.696Z,69.80
2023-03-11T17:52:10.323Z,71.08
2023-03-11T17:54:36.928Z,70.04
2023-03-11T17:57:03.770Z,68.23
2023-03-11T17:59:30.413Z,67.76
2023-03-11T18:01:57.111Z,66.79
2023-03-11T18:04:23.844Z,69.00
2023-03-11T18:06:50.580Z,72.52
2023-03-11T18:09:17.201Z,70.46
2023-03-11T18:11:43.888Z,69.20
2023-03-11T18:14:10.553Z,68.66
2023-03-11T18:16:37.418Z,67.57
2023-03-11T18:19:05.021Z,70.51
2023-03-11T18:21:32.365Z,71.26
2023-03-11T18:24:00.653Z,69.54
2023-03-11T18:26:29.891Z,71.92
2023-03-11T18:28:58.268Z,70.33
2023-03-11T18:31:26.741Z,71.71
2023-03-11T18:33:56.948Z,74.01
2023-03-11T18:36:32.761Z,72.77
2023-03-11T18:39:00.620Z,75.42
2023-03-11T18:41:31.923Z,73.60
2023-03-11T18:43:59.079Z,75.23
2023-03-11T18:46:28.798Z,74.14
2023-03-11T18:48:56.969Z,72.93
2023-03-11T18:51:25.052Z,71.62
2023-03-11T18:53:51.694Z,73.56
2023-03-11T18:56:19.125Z,71.70
2023-03-11T18:58:46.780Z,70.92
2023-03-11T19:01:16.675Z,71.72
2023-03-11T19:03:45.212Z,72.35
2023-03-11T19:06:13.035Z,73.56
2023-03-11T19:08:40.396Z,75.12
2023-03-11T19:11:13.973Z,72.48
2023-03-11T19:13:47.026Z,72.46
2023-03-11T19:16:18.152Z,70.80
2023-03-11T19:18:46.176Z,69.81
2023-03-11T19:21:15.437Z,68.96
2023-03-11T19:23:42.459Z,69.98
2023-03-11T19:26:09.193Z,72.38
2023-03-11T19:28:35.910Z,69.69
2023-03-11T19:31:03.129Z,72.10
2023-03-11T19:33:29.912Z,70.83
2023-03-11T19:36:00.430Z,70.43
2023-03-11T19:38:28.977Z,70.61
2023-03-11T19:41:14.794Z,69.35
2023-03-11T19:43:42.168Z,68.06
2023-03-11T19:46:12.014Z,67.52
2023-03-11T19:48:38.760Z,68.13
2023-03-11T19:51:05.920Z,70.59
2023-03-11T19:53:33.205Z,73.04
2023-03-11T19:56:00.027Z,72.21
2023-03-11T19:58:30.414Z,72.71
2023-03-11T20:00:58.171Z,72.18
2023-03-11T20:03:26.012Z,73.31
2023-03-11T20:05:53.236Z,72.89
2023-03-11T20:08:21.480Z,73.02
2023-03-11T20:10:50.485Z,71.01
2023-03-11T20:13:19.210Z,71.18
2023-03-11T20:15:46.744Z,70.98
2023-03-11T20:18:13.557Z,73.67
2023-03-11T20:20:40.332Z,72.25
2023-03-11T20:23:07.089Z,70.39
2023-03-11T20:25:41.321Z,70.16
2023-03-11T20:28:08.729Z,69.16
2023-03-11T20:30:38.286Z,68.96
2023-03-11T20:33:05.400Z,67.17
2023-03-11T20:35:32.120Z,67.91
2023-03-11T20:37:59.252Z,66.60
2023-03-11T20:40:26.075Z,67.58
2023-03-11T20:42:52.713Z,70.48
2023-03-11T20:45:19.336Z,69.32
2023-03-11T20:47:45.990Z,69.28
2023-03-11T20:50:13.014Z,68.15
2023-03-11T20:52:40.017Z,69.12
2023-03-11T20:55:07.763Z,71.72
2023-03-11T20:57:34.407Z,69.95
2023-03-11T21:00:01.158Z,68.79
2023-03-11T21:02:27.900Z,69.82
2023-03-11T21:04:54.633Z,69.40
2023-03-11T21:07:21.407Z,68.54
2023-03-11T21:09:48.188Z,68.80
2023-03-11T21:12:14.942Z,68.21
2023-03-11T21:14:41.600Z,68.91
2023-03-11T21:17:08.467Z,70.30
2023-03-11T21:19:35.314Z,71.32
2023-03-11T21:22:02.037Z,70.21
2023-03-11T21:24:28.746Z,70.30
2023-03-11T21:26:55.497Z,70.79
2023-03-11T21:29:22.176Z,70.71
2023-03-11T21:31:48.881Z,70.22
2023-03-11T21:34:15.636Z,70.91
2023-03-11T21:36:42.529Z,71.21
2023-03-11T21:39:09.276Z,70.29
2023-03-11T21:41:35.901Z,69.76
2023-03-11T21:44:02.718Z,69.28
2023-03-11T21:46:31.610Z,70.30
2023-03-11T21:48:59.658Z,67.98
2023-03-11T21:51:27.584Z,69.37
2023-03-11T21:53:54.424Z,68.46
2023-03-11T21:56:21.277Z,68.13
2023-03-11T21:58:48.038Z,68.30
2023-03-11T22:01:14.871Z,67.85
2023-03-11T22:03:42.080Z,67.62
2023-03-11T22:06:11.823Z,70.22
2023-03-11T22:08:39.106Z,70.35
2023-03-11T22:11:11.851Z,70.15
2023-03-11T22:13:38.640Z,69.46
2023-03-11T22:16:06.793Z,69.11
2023-03-11T22:18:33.680Z,68.48
2023-03-11T22:21:00.968Z,68.86
2023-03-11T22:23:28.149Z,68.52
2023-03-11T22:25:54.970Z,68.19
2023-03-11T22:28:22.684Z,67.38
2023-03-11T22:30:49.372Z,66.73
2023-03-11T22:33:16.012Z,67.44
2023-03-11T22:35:50.256Z,67.93
2023-03-11T22:38:17.079Z,66.95
2023-03-11T22:40:43.828Z,66.93
2023-03-11T22:43:10.559Z,68.09
2023-03-11T22:45:37.234Z,68.49
2023-03-11T22:48:04.000Z,68.03
2023-03-11T22:50:31.027Z,67.24
2023-03-11T22:52:57.658Z,66.96
2023-03-11T22:55:24.297Z,70.81
2023-03-11T22:57:51.004Z,69.27
2023-03-11T23:00:21.892Z,69.66
2023-03-11T23:02:53.322Z,70.81
2023-03-11T23:05:20.517Z,70.71
2023-03-11T23:07:47.493Z,70.36
2023-03-11T23:10:15.799Z,69.65
2023-03-11T23:12:43.242Z,68.49
2023-03-11T23:15:14.271Z,69.81
2023-03-11T23:17:41.655Z,71.04
2023-03-11T23:20:14.868Z,71.06
2023-03-11T23:22:42.507Z,71.56
2023-03-11T23:25:14.769Z,71.21
2023-03-11T23:27:42.352Z,72.94
2023-03-11T23:30:12.888Z,72.96
2023-03-11T23:32:39.636Z,72.72
2023-03-11T23:35:06.896Z,73.58
2023-03-11T23:37:33.520Z,71.40
2023-03-11T23:40:00.191Z,70.00
2023-03-11T23:42:26.821Z,72.91
2023-03-11T23:44:54.178Z,76.79
2023-03-11T23:47:20.868Z,76.90
2023-03-11T23:49:47.500Z,75.42
2023-03-11T23:52:14.179Z,73.29
2023-03-11T23:54:40.861Z,73.06
2023-03-11T23:57:07.819Z,72.13
2023-03-11T23:59:34.565Z,70.48
